createdAt,value
2023-03-28T00:04:54.656Z,77.76
2023-03-28T00:09:58.387Z,77.89
2023-03-28T00:15:04.461Z,78.08
2023-03-28T00:20:10.753Z,78.26
2023-03-28T00:25:14.469Z,78.25
2023-03-28T00:30:17.665Z,77.87
2023-03-28T00:35:21.083Z,77.75
2023-03-28T00:40:26.623Z,77.93
2023-03-28T00:45:29.959Z,78.07
2023-03-28T00:50:42.719Z,78.35
2023-03-28T00:56:17.839Z,78.75
2023-03-28T01:01:21.332Z,78.98
2023-03-28T01:06:26.391Z,79.39
2023-03-28T01:11:30.445Z,79.64
2023-03-28T01:16:34.079Z,79.93
2023-03-28T01:22:41.263Z,79.74
2023-03-28T01:28:20.006Z,79.61
2023-03-28T01:33:53.943Z,79.49
2023-03-28T01:39:25.407Z,79.70
2023-03-28T01:45:11.847Z,79.31
2023-03-28T01:50:44.229Z,79.04
2023-03-28T01:55:58.467Z,78.85
2023-03-28T02:01:23.438Z,78.51
2023-03-28T02:06:30.127Z,78.25
2023-03-28T02:11:35.722Z,78.06
2023-03-28T02:16:42.215Z,78.42
2023-03-28T02:22:01.392Z,78.49
2023-03-28T02:27:08.640Z,78.13
2023-03-28T02:32:11.760Z,78.13
2023-03-28T02:37:59.607Z,78.46
2023-03-28T02:43:45.825Z,78.69
2023-03-28T02:49:35.071Z,78.41
2023-03-28T02:55:05.664Z,78.26
2023-03-28T03:00:17.434Z,78.36
2023-03-28T03:05:22.242Z,78.06
2023-03-28T03:10:25.327Z,78.17
2023-03-28T03:15:31.138Z,78.05
2023-03-28T03:20:34.442Z,78.03
2023-03-28T03:25:38.146Z,77.85
2023-03-28T03:30:41.110Z,77.82
2023-03-28T03:35:46.011Z,77.69
2023-03-28T03:40:49.179Z,77.85
2023-03-28T03:45:52.551Z,77.60
2023-03-28T03:50:56.208Z,77.50
2023-03-28T03:56:04.010Z,77.71
2023-03-28T04:01:09.996Z,77.85
2023-03-28T04:06:13.114Z,77.96
2023-03-28T04:11:16.231Z,78.00
2023-03-28T04:16:21.183Z,78.10
2023-03-28T04:21:31.156Z,78.24
2023-03-28T04:26:38.193Z,78.18
2023-03-28T04:31:41.662Z,77.96
2023-03-28T04:36:45.259Z,77.66
2023-03-28T04:41:48.461Z,77.64
2023-03-28T04:46:51.908Z,77.56
2023-03-28T04:51:54.989Z,77.54
2023-03-28T04:56:58.016Z,77.72
2023-03-28T05:02:01.157Z,77.50
2023-03-28T05:07:04.837Z,77.18
2023-03-28T05:12:08.038Z,76.92
2023-03-28T05:17:11.137Z,76.53
2023-03-28T05:22:14.343Z,76.14
2023-03-28T05:27:18.268Z,76.15
2023-03-28T05:32:21.841Z,75.51
2023-03-28T05:37:24.895Z,75.07
2023-03-28T05:42:36.301Z,75.27
2023-03-28T05:47:39.847Z,75.93
2023-03-28T05:52:43.013Z,77.21
2023-03-28T05:57:46.330Z,78.71
2023-03-28T06:02:55.025Z,80.02
2023-03-28T06:07:58.167Z,80.35
2023-03-28T06:13:01.582Z,81.00
2023-03-28T06:18:04.986Z,81.61
2023-03-28T06:23:08.213Z,81.89
2023-03-28T06:28:11.428Z,81.82
2023-03-28T06:33:14.523Z,81.93
2023-03-28T06:38:17.675Z,81.86
2023-03-28T06:43:20.942Z,81.82
2023-03-28T06:48:30.953Z,81.86
2023-03-28T06:53:36.229Z,82.81
2023-03-28T06:58:39.881Z,84.43
2023-03-28T07:03:43.109Z,84.73
2023-03-28T07:08:46.812Z,84.65
2023-03-28T07:13:50.848Z,84.61
2023-03-28T07:18:54.057Z,84.39
2023-03-28T07:23:57.198Z,83.76
2023-03-28T07:29:00.694Z,82.78
2023-03-28T07:34:03.964Z,82.12
2023-03-28T07:39:07.090Z,81.75
2023-03-28T07:44:10.232Z,81.28
2023-03-28T07:49:15.571Z,80.01
2023-03-28T07:54:19.387Z,78.73
2023-03-28T07:59:22.492Z,77.32
2023-03-28T08:04:26.108Z,76.39
2023-03-28T08:09:29.141Z,75.25
2023-03-28T08:14:32.316Z,75.84
2023-03-28T08:19:35.530Z,75.43
2023-03-28T08:24:40.471Z,73.99
2023-03-28T08:29:43.786Z,70.28
2023-03-28T08:34:47.220Z,70.88
2023-03-28T08:39:50.631Z,70.54
2023-03-28T08:45:21.664Z,71.51
2023-03-28T08:50:39.015Z,72.28
2023-03-28T08:55:43.479Z,72.01
2023-03-28T09:00:47.889Z,72.36
2023-03-28T09:06:18.276Z,72.04
2023-03-28T09:11:55.242Z,72.06
2023-03-28T09:17:24.181Z,71.50
2023-03-28T09:22:45.929Z,73.38
2023-03-28T09:28:20.733Z,74.63
2023-03-28T09:33:32.663Z,72.17
2023-03-28T09:38:46.626Z,71.95
2023-03-28T09:44:00.814Z,71.81
2023-03-28T09:49:04.169Z,69.98
2023-03-28T09:54:09.052Z,70.50
2023-03-28T09:59:34.790Z,70.93
2023-03-28T10:04:39.592Z,70.77
2023-03-28T10:09:57.045Z,69.68
2023-03-28T10:15:01.311Z,68.75
2023-03-28T10:20:18.088Z,66.65
2023-03-28T10:25:37.891Z,65.81
2023-03-28T10:30:43.769Z,65.89
2023-03-28T10:35:58.906Z,64.39
2023-03-28T10:41:11.929Z,64.52
2023-03-28T10:46:35.633Z,66.86
2023-03-28T10:51:42.799Z,66.72
2023-03-28T10:57:10.223Z,65.61
2023-03-28T11:02:28.450Z,63.65
2023-03-28T11:07:53.984Z,64.68
2023-03-28T11:13:53.113Z,63.98
2023-03-28T11:20:11.088Z,67.18
2023-03-28T11:25:34.860Z,68.96
2023-03-28T11:30:41.322Z,68.86
2023-03-28T11:35:53.109Z,70.42
2023-03-28T11:41:02.220Z,73.14
2023-03-28T11:46:20.996Z,70.99
2023-03-28T11:51:33.314Z,69.03
2023-03-28T11:57:00.099Z,66.00
2023-03-28T12:02:29.001Z,66.39
2023-03-28T12:07:43.747Z,64.79
2023-03-28T12:13:13.278Z,64.97
2023-03-28T12:18:43.337Z,65.56
2023-03-28T12:24:25.950Z,67.00
2023-03-28T12:29:44.889Z,64.61
2023-03-28T12:35:06.046Z,61.60
2023-03-28T12:40:30.865Z,61.33
2023-03-28T12:45:43.139Z,58.42
2023-03-28T12:51:02.202Z,57.02
2023-03-28T12:56:12.530Z,64.69
2023-03-28T13:01:41.574Z,66.82
2023-03-28T13:07:18.205Z,64.54
2023-03-28T13:12:37.856Z,64.85
2023-03-28T13:18:09.239Z,64.93
2023-03-28T13:23:15.668Z,63.57
2023-03-28T13:28:18.807Z,68.87
2023-03-28T13:34:00.048Z,75.78
2023-03-28T13:39:25.460Z,75.19
2023-03-28T13:44:41.661Z,73.24
2023-03-28T13:50:19.982Z,71.98
2023-03-28T13:55:26.471Z,70.64
2023-03-28T14:00:31.424Z,69.32
2023-03-28T14:05:35.752Z,68.13
2023-03-28T14:10:43.793Z,68.74
2023-03-28T14:15:48.452Z,69.62
2023-03-28T14:20:56.364Z,69.65
2023-03-28T14:26:08.761Z,70.85
2023-03-28T14:31:30.741Z,69.74
2023-03-28T14:36:38.055Z,67.38
2023-03-28T14:41:43.873Z,62.11
2023-03-28T14:46:49.672Z,57.51
2023-03-28T14:51:57.193Z,58.58
2023-03-28T14:57:04.106Z,64.38
2023-03-28T15:02:22.433Z,69.80
2023-03-28T15:07:28.751Z,69.94
2023-03-28T15:12:53.545Z,70.47
2023-03-28T15:18:04.664Z,74.30
2023-03-28T15:23:17.378Z,73.26
2023-03-28T15:28:20.852Z,73.18
2023-03-28T15:33:28.484Z,72.07
2023-03-28T15:38:31.567Z,71.32
2023-03-28T15:43:53.003Z,70.50
2023-03-28T15:49:06.526Z,71.44
2023-03-28T15:54:28.129Z,71.76
2023-03-28T15:59:43.944Z,72.63
2023-03-28T16:05:06.922Z,73.32
2023-03-28T16:10:13.455Z,74.56
2023-03-28T16:15:17.423Z,77.39
2023-03-28T16:20:25.487Z,77.95
2023-03-28T16:25:29.440Z,77.88
2023-03-28T16:30:42.551Z,76.92
2023-03-28T16:35:46.577Z,76.46
2023-03-28T16:40:50.336Z,77.67
2023-03-28T16:45:53.475Z,78.57
2023-03-28T16:50:58.951Z,78.42
2023-03-28T16:56:03.961Z,78.38
2023-03-28T17:01:11.782Z,79.05
2023-03-28T17:06:17.005Z,79.59
2023-03-28T17:11:22.022Z,79.73
2023-03-28T17:16:25.647Z,79.80
2023-03-28T17:21:29.423Z,79.99
2023-03-28T17:26:32.722Z,80.04
2023-03-28T17:31:36.209Z,79.84
2023-03-28T17:36:41.496Z,79.51
2023-03-28T17:41:44.724Z,79.18
2023-03-28T17:46:48.165Z,78.70
2023-03-28T17:51:52.325Z,78.46
2023-03-28T17:56:55.916Z,78.24
2023-03-28T18:01:59.313Z,78.04
2023-03-28T18:07:02.485Z,76.68
2023-03-28T18:12:20.357Z,76.00
2023-03-28T18:17:23.800Z,74.00
2023-03-28T18:22:27.692Z,73.05
2023-03-28T18:27:30.785Z,73.11
2023-03-28T18:32:34.864Z,72.76
2023-03-28T18:37:38.227Z,72.46
2023-03-28T18:42:41.693Z,72.40
2023-03-28T18:47:44.792Z,72.67
2023-03-28T18:52:48.099Z,71.99
2023-03-28T18:57:52.835Z,71.26
2023-03-28T19:02:56.744Z,70.69
2023-03-28T19:07:59.953Z,69.44
2023-03-28T19:13:03.159Z,68.90
2023-03-28T19:18:07.251Z,68.69
2023-03-28T19:23:10.582Z,68.26
2023-03-28T19:28:13.697Z,67.56
2023-03-28T19:33:17.069Z,67.33
2023-03-28T19:38:22.256Z,67.36
2023-03-28T19:43:25.997Z,67.22
2023-03-28T19:48:29.084Z,67.71
2023-03-28T19:53:32.206Z,67.36
2023-03-28T19:58:35.602Z,67.61
2023-03-28T20:03:38.945Z,67.08
2023-03-28T20:08:43.048Z,66.61
2023-03-28T20:13:46.457Z,66.29
2023-03-28T20:18:49.566Z,66.21
2023-03-28T20:23:52.987Z,66.17
2023-03-28T20:28:59.574Z,66.49
2023-03-28T20:34:03.499Z,66.43
2023-03-28T20:39:07.226Z,66.43
2023-03-28T20:44:10.329Z,66.51
2023-03-28T20:49:13.534Z,66.56
2023-03-28T20:54:16.757Z,66.60
2023-03-28T20:59:20.562Z,66.69
2023-03-28T21:04:24.085Z,66.82
2023-03-28T21:09:27.627Z,67.53
2023-03-28T21:14:30.899Z,67.89
2023-03-28T21:19:35.038Z,68.29
2023-03-28T21:24:38.239Z,68.78
2023-03-28T21:29:42.166Z,69.33
2023-03-28T21:34:45.677Z,69.89
2023-03-28T21:39:48.825Z,70.13
2023-03-28T21:44:52.202Z,70.35
2023-03-28T21:49:55.310Z,70.64
2023-03-28T21:54:58.851Z,70.66
2023-03-28T22:00:01.997Z,71.09
2023-03-28T22:05:10.624Z,71.32
2023-03-28T22:10:26.644Z,71.39
2023-03-28T22:15:31.886Z,71.49
2023-03-28T22:20:38.523Z,71.90
2023-03-28T22:25:42.780Z,72.49
2023-03-28T22:30:46.308Z,72.69
2023-03-28T22:35:50.242Z,73.15
2023-03-28T22:40:53.409Z,73.68
2023-03-28T22:45:56.849Z,73.93
2023-03-28T22:51:01.782Z,74.25
2023-03-28T22:56:06.837Z,74.64
2023-03-28T23:01:09.937Z,74.73
2023-03-28T23:06:13.470Z,74.81
2023-03-28T23:11:16.868Z,75.24
2023-03-28T23:16:20.057Z,75.78
2023-03-28T23:21:24.582Z,76.18
2023-03-28T23:26:27.721Z,76.56
2023-03-28T23:31:31.356Z,76.54
2023-03-28T23:36:34.740Z,76.70
2023-03-28T23:41:37.957Z,76.89
2023-03-28T23:46:41.161Z,76.64
2023-03-28T23:51:44.462Z,76.33
2023-03-28T23:56:49.364Z,76.27
